sensor_id;sensor_type;location;lat;lon;timestamp;P1;durP1;ratioP1;P2;durP2;ratioP2
37859;SDS011;23698;52.014;5.190;2023-04-06T00:02:29;18.58;;;10.68;;
37859;SDS011;23698;52.014;5.190;2023-04-06T00:05:16;19.73;;;10.57;;
37859;SDS011;23698;52.014;5.190;2023-04-06T00:08:03;16.88;;;10.02;;
37859;SDS011;23698;52.014;5.190;2023-04-06T00:10:50;19.92;;;10.60;;
37859;SDS011;23698;52.014;5.190;2023-04-06T00:13:36;22.27;;;10.52;;
37859;SDS011;23698;52.014;5.190;2023-04-06T00:16:23;25.50;;;10.77;;
37859;SDS011;23698;52.014;5.190;2023-04-06T00:19:11;22.85;;;11.48;;
37859;SDS011;23698;52.014;5.190;2023-04-06T00:21:58;19.48;;;10.85;;
37859;SDS011;23698;52.014;5.190;2023-04-06T00:24:46;20.95;;;10.82;;
37859;SDS011;23698;52.014;5.190;2023-04-06T00:27:32;22.10;;;11.18;;
37859;SDS011;23698;52.014;5.190;2023-04-06T00:30:18;22.65;;;10.80;;
37859;SDS011;23698;52.014;5.190;2023-04-06T00:33:05;20.48;;;11.13;;
37859;SDS011;23698;52.014;5.190;2023-04-06T00:35:51;17.77;;;10.95;;
37859;SDS011;23698;52.014;5.190;2023-04-06T00:38:38;21.40;;;11.20;;
37859;SDS011;23698;52.014;5.190;2023-04-06T00:41:26;20.55;;;10.82;;
37859;SDS011;23698;52.014;5.190;2023-04-06T00:44:13;21.10;;;10.98;;
37859;SDS011;23698;52.014;5.190;2023-04-06T00:47:00;19.17;;;10.73;;
37859;SDS011;23698;52.014;5.190;2023-04-06T00:49:46;20.10;;;11.10;;
37859;SDS011;23698;52.014;5.190;2023-04-06T00:52:33;18.60;;;9.80;;
37859;SDS011;23698;52.014;5.190;2023-04-06T00:55:20;23.10;;;10.70;;
37859;SDS011;23698;52.014;5.190;2023-04-06T00:58:08;18.90;;;9.73;;
37859;SDS011;23698;52.014;5.190;2023-04-06T01:01:04;20.77;;;9.00;;
37859;SDS011;23698;52.014;5.190;2023-04-06T01:03:52;21.25;;;10.30;;
37859;SDS011;23698;52.014;5.190;2023-04-06T01:06:39;19.77;;;10.57;;
37859;SDS011;23698;52.014;5.190;2023-04-06T01:09:27;17.13;;;8.77;;
37859;SDS011;23698;52.014;5.190;2023-04-06T01:12:13;18.30;;;9.57;;
37859;SDS011;23698;52.014;5.190;2023-04-06T01:15:01;15.55;;;9.57;;
37859;SDS011;23698;52.014;5.190;2023-04-06T01:20:36;15.30;;;8.07;;
37859;SDS011;23698;52.014;5.190;2023-04-06T01:23:26;16.77;;;9.10;;
37859;SDS011;23698;52.014;5.190;2023-04-06T01:26:12;17.00;;;8.90;;
37859;SDS011;23698;52.014;5.190;2023-04-06T01:29:00;19.40;;;8.60;;
37859;SDS011;23698;52.014;5.190;2023-04-06T01:31:47;22.67;;;8.93;;
37859;SDS011;23698;52.014;5.190;2023-04-06T01:34:34;16.27;;;8.95;;
37859;SDS011;23698;52.014;5.190;2023-04-06T01:37:22;21.73;;;8.63;;
37859;SDS011;23698;52.014;5.190;2023-04-06T01:40:13;13.13;;;7.93;;
37859;SDS011;23698;52.014;5.190;2023-04-06T01:43:06;14.23;;;8.25;;
37859;SDS011;23698;52.014;5.190;2023-04-06T01:46:02;18.70;;;8.90;;
37859;SDS011;23698;52.014;5.190;2023-04-06T01:48:54;13.35;;;8.13;;
37859;SDS011;23698;52.014;5.190;2023-04-06T01:51:55;16.30;;;8.90;;
37859;SDS011;23698;52.014;5.190;2023-04-06T01:54:41;19.98;;;8.93;;
37859;SDS011;23698;52.014;5.190;2023-04-06T01:57:58;15.35;;;7.80;;
37859;SDS011;23698;52.014;5.190;2023-04-06T02:00:51;15.90;;;8.15;;
37859;SDS011;23698;52.014;5.190;2023-04-06T02:03:38;14.73;;;8.45;;
37859;SDS011;23698;52.014;5.190;2023-04-06T02:06:27;17.80;;;8.40;;
37859;SDS011;23698;52.014;5.190;2023-04-06T02:09:15;18.77;;;8.98;;
37859;SDS011;23698;52.014;5.190;2023-04-06T02:12:02;15.57;;;8.75;;
37859;SDS011;23698;52.014;5.190;2023-04-06T02:14:51;17.27;;;8.82;;
37859;SDS011;23698;52.014;5.190;2023-04-06T02:17:38;13.43;;;7.97;;
37859;SDS011;23698;52.014;5.190;2023-04-06T02:20:24;16.60;;;8.05;;
37859;SDS011;23698;52.014;5.190;2023-04-06T02:23:11;13.07;;;7.30;;
37859;SDS011;23698;52.014;5.190;2023-04-06T02:25:57;14.68;;;7.63;;
37859;SDS011;23698;52.014;5.190;2023-04-06T02:28:44;15.43;;;8.55;;
37859;SDS011;23698;52.014;5.190;2023-04-06T02:31:32;16.58;;;7.97;;
37859;SDS011;23698;52.014;5.190;2023-04-06T02:34:19;13.50;;;8.15;;
37859;SDS011;23698;52.014;5.190;2023-04-06T02:37:08;16.95;;;7.85;;
37859;SDS011;23698;52.014;5.190;2023-04-06T02:39:55;15.75;;;8.07;;
37859;SDS011;23698;52.014;5.190;2023-04-06T02:42:42;16.80;;;8.60;;
37859;SDS011;23698;52.014;5.190;2023-04-06T02:45:29;15.30;;;8.40;;
37859;SDS011;23698;52.014;5.190;2023-04-06T02:48:18;16.92;;;7.82;;
37859;SDS011;23698;52.014;5.190;2023-04-06T02:51:04;17.45;;;8.07;;
37859;SDS011;23698;52.014;5.190;2023-04-06T02:53:51;14.93;;;8.40;;
37859;SDS011;23698;52.014;5.190;2023-04-06T02:56:38;18.20;;;9.25;;
37859;SDS011;23698;52.014;5.190;2023-04-06T02:59:25;14.48;;;8.30;;
37859;SDS011;23698;52.014;5.190;2023-04-06T03:02:23;14.75;;;8.45;;
37859;SDS011;23698;52.014;5.190;2023-04-06T03:05:15;15.63;;;8.88;;
37859;SDS011;23698;52.014;5.190;2023-04-06T03:08:04;16.05;;;8.68;;
37859;SDS011;23698;52.014;5.190;2023-04-06T03:10:58;16.85;;;9.30;;
37859;SDS011;23698;52.014;5.190;2023-04-06T03:13:52;18.52;;;9.65;;
37859;SDS011;23698;52.014;5.190;2023-04-06T03:16:39;17.17;;;8.80;;
37859;SDS011;23698;52.014;5.190;2023-04-06T03:19:26;15.27;;;9.32;;
37859;SDS011;23698;52.014;5.190;2023-04-06T03:22:17;17.48;;;9.48;;
37859;SDS011;23698;52.014;5.190;2023-04-06T03:25:05;19.95;;;9.73;;
37859;SDS011;23698;52.014;5.190;2023-04-06T03:27:52;20.73;;;9.93;;
37859;SDS011;23698;52.014;5.190;2023-04-06T03:30:39;18.27;;;9.32;;
37859;SDS011;23698;52.014;5.190;2023-04-06T03:33:26;19.08;;;8.93;;
37859;SDS011;23698;52.014;5.190;2023-04-06T03:36:13;22.23;;;10.82;;
37859;SDS011;23698;52.014;5.190;2023-04-06T03:39:02;20.98;;;10.70;;
37859;SDS011;23698;52.014;5.190;2023-04-06T03:41:52;18.35;;;9.75;;
37859;SDS011;23698;52.014;5.190;2023-04-06T03:47:39;18.70;;;10.35;;
37859;SDS011;23698;52.014;5.190;2023-04-06T03:50:26;19.27;;;10.35;;
37859;SDS011;23698;52.014;5.190;2023-04-06T03:53:13;22.90;;;11.35;;
37859;SDS011;23698;52.014;5.190;2023-04-06T03:56:00;26.70;;;10.82;;
37859;SDS011;23698;52.014;5.190;2023-04-06T03:58:49;18.92;;;10.52;;
37859;SDS011;23698;52.014;5.190;2023-04-06T04:01:38;24.08;;;11.60;;
37859;SDS011;23698;52.014;5.190;2023-04-06T04:04:25;21.25;;;11.55;;
37859;SDS011;23698;52.014;5.190;2023-04-06T04:07:11;19.63;;;11.18;;
37859;SDS011;23698;52.014;5.190;2023-04-06T04:09:58;21.73;;;11.43;;
37859;SDS011;23698;52.014;5.190;2023-04-06T04:12:46;23.85;;;11.77;;
37859;SDS011;23698;52.014;5.190;2023-04-06T04:15:33;26.10;;;12.73;;
37859;SDS011;23698;52.014;5.190;2023-04-06T04:18:19;22.85;;;11.75;;
37859;SDS011;23698;52.014;5.190;2023-04-06T04:21:06;22.02;;;12.50;;
37859;SDS011;23698;52.014;5.190;2023-04-06T04:23:53;23.20;;;12.40;;
37859;SDS011;23698;52.014;5.190;2023-04-06T04:26:40;21.38;;;14.18;;
37859;SDS011;23698;52.014;5.190;2023-04-06T04:29:28;20.48;;;11.45;;
37859;SDS011;23698;52.014;5.190;2023-04-06T04:32:19;24.30;;;12.23;;
37859;SDS011;23698;52.014;5.190;2023-04-06T04:35:07;23.17;;;12.93;;
37859;SDS011;23698;52.014;5.190;2023-04-06T04:37:58;24.92;;;12.73;;
37859;SDS011;23698;52.014;5.190;2023-04-06T04:40:45;23.00;;;11.75;;
37859;SDS011;23698;52.014;5.190;2023-04-06T04:43:31;21.00;;;12.40;;
37859;SDS011;23698;52.014;5.190;2023-04-06T04:46:21;21.48;;;12.40;;
37859;SDS011;23698;52.014;5.190;2023-04-06T04:49:09;24.00;;;12.93;;
37859;SDS011;23698;52.014;5.190;2023-04-06T04:51:58;20.98;;;12.02;;
37859;SDS011;23698;52.014;5.190;2023-04-06T04:54:55;21.13;;;11.77;;
37859;SDS011;23698;52.014;5.190;2023-04-06T04:57:45;24.55;;;12.65;;
37859;SDS011;23698;52.014;5.190;2023-04-06T05:00:33;25.60;;;13.27;;
37859;SDS011;23698;52.014;5.190;2023-04-06T05:03:22;22.55;;;12.82;;
37859;SDS011;23698;52.014;5.190;2023-04-06T05:06:17;25.15;;;12.85;;
37859;SDS011;23698;52.014;5.190;2023-04-06T05:09:05;27.83;;;15.68;;
37859;SDS011;23698;52.014;5.190;2023-04-06T05:11:53;27.10;;;14.02;;
37859;SDS011;23698;52.014;5.190;2023-04-06T05:14:39;22.60;;;13.00;;
37859;SDS011;23698;52.014;5.190;2023-04-06T05:17:31;29.55;;;12.85;;
37859;SDS011;23698;52.014;5.190;2023-04-06T05:20:19;29.73;;;13.10;;
37859;SDS011;23698;52.014;5.190;2023-04-06T05:23:08;25.13;;;13.73;;
37859;SDS011;23698;52.014;5.190;2023-04-06T05:25:55;26.60;;;13.73;;
37859;SDS011;23698;52.014;5.190;2023-04-06T05:28:41;25.35;;;13.15;;
37859;SDS011;23698;52.014;5.190;2023-04-06T05:31:29;26.88;;;14.15;;
37859;SDS011;23698;52.014;5.190;2023-04-06T05:34:16;23.98;;;13.10;;
37859;SDS011;23698;52.014;5.190;2023-04-06T05:37:05;25.48;;;13.43;;
37859;SDS011;23698;52.014;5.190;2023-04-06T05:39:51;24.80;;;13.77;;
37859;SDS011;23698;52.014;5.190;2023-04-06T05:42:39;25.98;;;13.93;;
37859;SDS011;23698;52.014;5.190;2023-04-06T05:45:30;26.67;;;14.30;;
37859;SDS011;23698;52.014;5.190;2023-04-06T05:48:22;26.92;;;13.73;;
37859;SDS011;23698;52.014;5.190;2023-04-06T05:51:10;25.70;;;14.65;;
37859;SDS011;23698;52.014;5.190;2023-04-06T05:54:04;26.88;;;13.70;;
37859;SDS011;23698;52.014;5.190;2023-04-06T05:56:51;26.40;;;13.68;;
37859;SDS011;23698;52.014;5.190;2023-04-06T05:59:38;25.50;;;13.23;;
37859;SDS011;23698;52.014;5.190;2023-04-06T06:02:25;24.17;;;13.95;;
37859;SDS011;23698;52.014;5.190;2023-04-06T06:05:16;26.65;;;13.70;;
37859;SDS011;23698;52.014;5.190;2023-04-06T06:08:07;27.92;;;13.32;;
37859;SDS011;23698;52.014;5.190;2023-04-06T06:10:55;24.13;;;13.52;;
37859;SDS011;23698;52.014;5.190;2023-04-06T06:13:42;32.08;;;13.88;;
37859;SDS011;23698;52.014;5.190;2023-04-06T06:16:30;29.63;;;14.43;;
37859;SDS011;23698;52.014;5.190;2023-04-06T06:19:16;29.30;;;14.30;;
37859;SDS011;23698;52.014;5.190;2023-04-06T06:22:05;26.98;;;13.88;;
37859;SDS011;23698;52.014;5.190;2023-04-06T06:24:57;30.38;;;15.15;;
37859;SDS011;23698;52.014;5.190;2023-04-06T06:27:46;25.48;;;14.20;;
37859;SDS011;23698;52.014;5.190;2023-04-06T06:30:38;26.60;;;13.52;;
37859;SDS011;23698;52.014;5.190;2023-04-06T06:33:25;27.45;;;14.30;;
37859;SDS011;23698;52.014;5.190;2023-04-06T06:36:14;32.05;;;14.32;;
37859;SDS011;23698;52.014;5.190;2023-04-06T06:39:00;28.48;;;14.43;;
37859;SDS011;23698;52.014;5.190;2023-04-06T06:41:49;23.30;;;13.77;;
37859;SDS011;23698;52.014;5.190;2023-04-06T06:44:45;25.70;;;14.63;;
37859;SDS011;23698;52.014;5.190;2023-04-06T06:47:31;27.67;;;15.80;;
37859;SDS011;23698;52.014;5.190;2023-04-06T06:50:18;27.92;;;16.15;;
37859;SDS011;23698;52.014;5.190;2023-04-06T06:53:06;26.08;;;14.75;;
37859;SDS011;23698;52.014;5.190;2023-04-06T06:55:53;31.05;;;14.73;;
37859;SDS011;23698;52.014;5.190;2023-04-06T06:58:40;23.27;;;13.40;;
37859;SDS011;23698;52.014;5.190;2023-04-06T07:01:30;23.95;;;13.73;;
37859;SDS011;23698;52.014;5.190;2023-04-06T07:04:19;26.38;;;14.07;;
37859;SDS011;23698;52.014;5.190;2023-04-06T07:07:06;23.50;;;13.32;;
37859;SDS011;23698;52.014;5.190;2023-04-06T07:09:53;29.35;;;14.48;;
37859;SDS011;23698;52.014;5.190;2023-04-06T07:12:40;27.02;;;14.13;;
37859;SDS011;23698;52.014;5.190;2023-04-06T07:15:27;25.60;;;14.00;;
37859;SDS011;23698;52.014;5.190;2023-04-06T07:18:17;28.27;;;13.90;;
37859;SDS011;23698;52.014;5.190;2023-04-06T07:21:05;31.15;;;14.18;;
37859;SDS011;23698;52.014;5.190;2023-04-06T07:23:51;27.35;;;14.90;;
37859;SDS011;23698;52.014;5.190;2023-04-06T07:26:39;24.80;;;13.80;;
37859;SDS011;23698;52.014;5.190;2023-04-06T07:29:26;25.20;;;14.73;;
37859;SDS011;23698;52.014;5.190;2023-04-06T07:32:13;26.95;;;15.10;;
37859;SDS011;23698;52.014;5.190;2023-04-06T07:35:01;25.15;;;14.05;;
37859;SDS011;23698;52.014;5.190;2023-04-06T07:37:48;25.65;;;15.02;;
37859;SDS011;23698;52.014;5.190;2023-04-06T07:43:52;29.55;;;14.93;;
37859;SDS011;23698;52.014;5.190;2023-04-06T07:46:39;25.98;;;13.75;;
37859;SDS011;23698;52.014;5.190;2023-04-06T07:49:26;27.23;;;15.27;;
37859;SDS011;23698;52.014;5.190;2023-04-06T07:52:14;27.13;;;15.48;;
37859;SDS011;23698;52.014;5.190;2023-04-06T07:55:02;26.02;;;15.27;;
37859;SDS011;23698;52.014;5.190;2023-04-06T07:57:49;28.20;;;14.23;;
37859;SDS011;23698;52.014;5.190;2023-04-06T08:00:36;30.95;;;14.48;;
37859;SDS011;23698;52.014;5.190;2023-04-06T08:03:51;28.08;;;14.07;;
37859;SDS011;23698;52.014;5.190;2023-04-06T08:06:40;23.85;;;14.63;;
37859;SDS011;23698;52.014;5.190;2023-04-06T08:09:28;26.98;;;14.80;;
37859;SDS011;23698;52.014;5.190;2023-04-06T08:12:15;24.75;;;14.80;;
37859;SDS011;23698;52.014;5.190;2023-04-06T08:15:01;28.05;;;15.23;;
37859;SDS011;23698;52.014;5.190;2023-04-06T08:17:48;29.52;;;15.75;;
37859;SDS011;23698;52.014;5.190;2023-04-06T08:20:35;27.23;;;14.63;;
37859;SDS011;23698;52.014;5.190;2023-04-06T08:23:22;32.03;;;16.15;;
37859;SDS011;23698;52.014;5.190;2023-04-06T08:26:10;28.55;;;14.98;;
37859;SDS011;23698;52.014;5.190;2023-04-06T08:28:56;26.67;;;14.75;;
37859;SDS011;23698;52.014;5.190;2023-04-06T08:31:43;28.48;;;15.02;;
37859;SDS011;23698;52.014;5.190;2023-04-06T08:34:30;30.50;;;15.32;;
37859;SDS011;23698;52.014;5.190;2023-04-06T08:37:18;29.52;;;16.38;;
37859;SDS011;23698;52.014;5.190;2023-04-06T08:40:04;29.02;;;15.57;;
37859;SDS011;23698;52.014;5.190;2023-04-06T08:42:54;29.70;;;15.68;;
37859;SDS011;23698;52.014;5.190;2023-04-06T08:45:42;26.75;;;15.43;;
37859;SDS011;23698;52.014;5.190;2023-04-06T08:48:29;30.30;;;15.75;;
37859;SDS011;23698;52.014;5.190;2023-04-06T08:51:15;28.33;;;15.70;;
37859;SDS011;23698;52.014;5.190;2023-04-06T08:54:03;27.50;;;14.85;;
37859;SDS011;23698;52.014;5.190;2023-04-06T08:56:51;32.30;;;16.02;;
37859;SDS011;23698;52.014;5.190;2023-04-06T08:59:42;34.55;;;16.52;;
37859;SDS011;23698;52.014;5.190;2023-04-06T09:02:30;31.13;;;17.35;;
37859;SDS011;23698;52.014;5.190;2023-04-06T09:05:18;28.48;;;15.75;;
37859;SDS011;23698;52.014;5.190;2023-04-06T09:08:05;33.22;;;16.50;;
37859;SDS011;23698;52.014;5.190;2023-04-06T09:10:52;31.20;;;16.45;;
37859;SDS011;23698;52.014;5.190;2023-04-06T09:13:45;32.10;;;17.35;;
37859;SDS011;23698;52.014;5.190;2023-04-06T09:16:39;31.60;;;17.40;;
37859;SDS011;23698;52.014;5.190;2023-04-06T09:19:27;31.65;;;16.77;;
37859;SDS011;23698;52.014;5.190;2023-04-06T09:22:13;33.90;;;18.20;;
37859;SDS011;23698;52.014;5.190;2023-04-06T09:24:59;37.28;;;18.13;;
37859;SDS011;23698;52.014;5.190;2023-04-06T09:27:46;31.27;;;17.25;;
37859;SDS011;23698;52.014;5.190;2023-04-06T09:30:34;33.28;;;17.55;;
37859;SDS011;23698;52.014;5.190;2023-04-06T09:36:58;37.90;;;19.67;;
37859;SDS011;23698;52.014;5.190;2023-04-06T09:42:31;35.35;;;17.65;;
37859;SDS011;23698;52.014;5.190;2023-04-06T09:46:16;36.25;;;18.13;;
37859;SDS011;23698;52.014;5.190;2023-04-06T09:49:03;32.67;;;17.83;;
37859;SDS011;23698;52.014;5.190;2023-04-06T09:52:18;30.40;;;17.08;;
37859;SDS011;23698;52.014;5.190;2023-04-06T09:56:11;29.75;;;15.68;;
37859;SDS011;23698;52.014;5.190;2023-04-06T09:59:05;27.80;;;13.20;;
37859;SDS011;23698;52.014;5.190;2023-04-06T10:01:56;21.25;;;10.70;;
37859;SDS011;23698;52.014;5.190;2023-04-06T10:04:48;24.25;;;12.38;;
37859;SDS011;23698;52.014;5.190;2023-04-06T10:07:40;23.10;;;10.90;;
37859;SDS011;23698;52.014;5.190;2023-04-06T10:10:45;22.08;;;11.95;;
37859;SDS011;23698;52.014;5.190;2023-04-06T10:13:33;21.17;;;10.23;;
37859;SDS011;23698;52.014;5.190;2023-04-06T10:16:20;20.50;;;10.07;;
37859;SDS011;23698;52.014;5.190;2023-04-06T10:19:09;16.40;;;9.88;;
37859;SDS011;23698;52.014;5.190;2023-04-06T10:22:02;17.67;;;9.20;;
37859;SDS011;23698;52.014;5.190;2023-04-06T10:24:52;14.32;;;8.75;;
37859;SDS011;23698;52.014;5.190;2023-04-06T10:27:40;17.08;;;8.82;;
37859;SDS011;23698;52.014;5.190;2023-04-06T10:30:28;13.18;;;8.85;;
37859;SDS011;23698;52.014;5.190;2023-04-06T10:33:14;14.07;;;7.57;;
37859;SDS011;23698;52.014;5.190;2023-04-06T10:36:09;14.23;;;7.40;;
37859;SDS011;23698;52.014;5.190;2023-04-06T10:38:56;11.55;;;6.32;;
37859;SDS011;23698;52.014;5.190;2023-04-06T10:41:47;12.10;;;6.63;;
37859;SDS011;23698;52.014;5.190;2023-04-06T10:44:41;13.38;;;7.88;;
37859;SDS011;23698;52.014;5.190;2023-04-06T10:47:29;12.57;;;6.78;;
37859;SDS011;23698;52.014;5.190;2023-04-06T10:50:54;11.70;;;5.80;;
37859;SDS011;23698;52.014;5.190;2023-04-06T10:53:41;14.05;;;6.38;;
37859;SDS011;23698;52.014;5.190;2023-04-06T10:56:29;11.93;;;6.80;;
37859;SDS011;23698;52.014;5.190;2023-04-06T10:59:20;11.73;;;6.88;;
37859;SDS011;23698;52.014;5.190;2023-04-06T11:02:08;13.23;;;6.28;;
37859;SDS011;23698;52.014;5.190;2023-04-06T11:04:54;12.07;;;7.65;;
37859;SDS011;23698;52.014;5.190;2023-04-06T11:07:42;13.27;;;8.07;;
37859;SDS011;23698;52.014;5.190;2023-04-06T11:10:30;13.73;;;8.88;;
37859;SDS011;23698;52.014;5.190;2023-04-06T11:13:17;14.23;;;9.43;;
37859;SDS011;23698;52.014;5.190;2023-04-06T11:16:05;16.58;;;10.18;;
37859;SDS011;23698;52.014;5.190;2023-04-06T11:18:52;16.27;;;10.52;;
37859;SDS011;23698;52.014;5.190;2023-04-06T11:21:40;13.60;;;7.85;;
37859;SDS011;23698;52.014;5.190;2023-04-06T11:24:30;14.02;;;7.22;;
37859;SDS011;23698;52.014;5.190;2023-04-06T11:27:16;14.07;;;8.30;;
37859;SDS011;23698;52.014;5.190;2023-04-06T11:30:04;12.77;;;7.85;;
37859;SDS011;23698;52.014;5.190;2023-04-06T11:33:00;13.95;;;8.35;;
37859;SDS011;23698;52.014;5.190;2023-04-06T11:35:47;13.00;;;6.45;;
37859;SDS011;23698;52.014;5.190;2023-04-06T11:38:34;13.38;;;7.50;;
37859;SDS011;23698;52.014;5.190;2023-04-06T11:41:25;13.38;;;7.85;;
37859;SDS011;23698;52.014;5.190;2023-04-06T11:44:26;14.55;;;7.60;;
37859;SDS011;23698;52.014;5.190;2023-04-06T11:47:14;11.18;;;6.60;;
37859;SDS011;23698;52.014;5.190;2023-04-06T11:50:09;14.43;;;8.17;;
37859;SDS011;23698;52.014;5.190;2023-04-06T11:52:57;13.45;;;7.95;;
37859;SDS011;23698;52.014;5.190;2023-04-06T11:55:47;14.33;;;8.13;;
37859;SDS011;23698;52.014;5.190;2023-04-06T11:58:35;14.23;;;7.50;;
37859;SDS011;23698;52.014;5.190;2023-04-06T12:01:23;15.45;;;8.38;;
37859;SDS011;23698;52.014;5.190;2023-04-06T12:07:01;14.45;;;8.57;;
37859;SDS011;23698;52.014;5.190;2023-04-06T12:09:48;18.40;;;9.38;;
37859;SDS011;23698;52.014;5.190;2023-04-06T12:12:34;16.60;;;9.40;;
37859;SDS011;23698;52.014;5.190;2023-04-06T12:15:21;15.82;;;8.90;;
37859;SDS011;23698;52.014;5.190;2023-04-06T12:18:07;17.80;;;9.02;;
37859;SDS011;23698;52.014;5.190;2023-04-06T12:20:54;16.40;;;9.70;;
37859;SDS011;23698;52.014;5.190;2023-04-06T12:23:43;14.57;;;9.10;;
37859;SDS011;23698;52.014;5.190;2023-04-06T12:26:31;18.42;;;9.55;;
37859;SDS011;23698;52.014;5.190;2023-04-06T12:29:17;18.60;;;10.05;;
37859;SDS011;23698;52.014;5.190;2023-04-06T12:32:04;17.58;;;9.77;;
37859;SDS011;23698;52.014;5.190;2023-04-06T12:34:51;16.05;;;9.68;;
37859;SDS011;23698;52.014;5.190;2023-04-06T12:37:38;17.88;;;9.13;;
37859;SDS011;23698;52.014;5.190;2023-04-06T12:40:26;15.50;;;9.70;;
37859;SDS011;23698;52.014;5.190;2023-04-06T12:43:12;19.70;;;10.23;;
37859;SDS011;23698;52.014;5.190;2023-04-06T12:45:59;15.52;;;10.18;;
37859;SDS011;23698;52.014;5.190;2023-04-06T12:48:46;20.90;;;10.63;;
37859;SDS011;23698;52.014;5.190;2023-04-06T12:51:33;20.00;;;11.30;;
37859;SDS011;23698;52.014;5.190;2023-04-06T12:54:19;20.63;;;11.30;;
37859;SDS011;23698;52.014;5.190;2023-04-06T12:57:08;19.63;;;10.70;;
37859;SDS011;23698;52.014;5.190;2023-04-06T12:59:54;20.75;;;10.88;;
37859;SDS011;23698;52.014;5.190;2023-04-06T13:02:41;18.48;;;10.52;;
37859;SDS011;23698;52.014;5.190;2023-04-06T13:05:31;18.67;;;11.35;;
37859;SDS011;23698;52.014;5.190;2023-04-06T13:08:18;19.63;;;12.23;;
37859;SDS011;23698;52.014;5.190;2023-04-06T13:11:06;17.02;;;10.77;;
37859;SDS011;23698;52.014;5.190;2023-04-06T13:13:56;19.30;;;11.43;;
37859;SDS011;23698;52.014;5.190;2023-04-06T13:16:43;17.42;;;10.60;;
37859;SDS011;23698;52.014;5.190;2023-04-06T13:19:29;18.67;;;11.55;;
37859;SDS011;23698;52.014;5.190;2023-04-06T13:22:16;19.70;;;11.45;;
37859;SDS011;23698;52.014;5.190;2023-04-06T13:25:05;18.33;;;11.32;;
37859;SDS011;23698;52.014;5.190;2023-04-06T13:27:52;19.55;;;11.73;;
37859;SDS011;23698;52.014;5.190;2023-04-06T13:30:41;26.15;;;12.82;;
37859;SDS011;23698;52.014;5.190;2023-04-06T13:33:28;21.40;;;11.30;;
37859;SDS011;23698;52.014;5.190;2023-04-06T13:36:14;21.52;;;13.52;;
37859;SDS011;23698;52.014;5.190;2023-04-06T13:39:02;18.23;;;12.40;;
37859;SDS011;23698;52.014;5.190;2023-04-06T13:41:54;21.48;;;13.27;;
37859;SDS011;23698;52.014;5.190;2023-04-06T13:44:41;21.42;;;11.95;;
37859;SDS011;23698;52.014;5.190;2023-04-06T13:47:30;19.73;;;12.13;;
37859;SDS011;23698;52.014;5.190;2023-04-06T13:50:18;22.50;;;13.15;;
37859;SDS011;23698;52.014;5.190;2023-04-06T13:53:05;22.63;;;12.77;;
37859;SDS011;23698;52.014;5.190;2023-04-06T13:55:52;21.27;;;12.23;;
37859;SDS011;23698;52.014;5.190;2023-04-06T13:58:39;23.73;;;12.60;;
37859;SDS011;23698;52.014;5.190;2023-04-06T14:01:26;24.45;;;12.82;;
37859;SDS011;23698;52.014;5.190;2023-04-06T14:04:15;21.15;;;13.05;;
37859;SDS011;23698;52.014;5.190;2023-04-06T14:07:02;23.42;;;13.10;;
37859;SDS011;23698;52.014;5.190;2023-04-06T14:09:53;20.13;;;12.40;;
37859;SDS011;23698;52.014;5.190;2023-04-06T14:12:40;20.83;;;12.43;;
37859;SDS011;23698;52.014;5.190;2023-04-06T14:15:33;23.20;;;13.77;;
37859;SDS011;23698;52.014;5.190;2023-04-06T14:18:20;21.95;;;12.52;;
37859;SDS011;23698;52.014;5.190;2023-04-06T14:21:08;20.88;;;11.40;;
37859;SDS011;23698;52.014;5.190;2023-04-06T14:23:55;20.95;;;11.77;;
37859;SDS011;23698;52.014;5.190;2023-04-06T14:26:44;20.17;;;12.43;;
37859;SDS011;23698;52.014;5.190;2023-04-06T14:29:30;18.50;;;11.13;;
37859;SDS011;23698;52.014;5.190;2023-04-06T14:32:19;19.92;;;12.52;;
37859;SDS011;23698;52.014;5.190;2023-04-06T14:35:08;22.17;;;12.63;;
37859;SDS011;23698;52.014;5.190;2023-04-06T14:38:01;21.13;;;12.10;;
37859;SDS011;23698;52.014;5.190;2023-04-06T14:40:47;22.00;;;12.90;;
37859;SDS011;23698;52.014;5.190;2023-04-06T14:43:37;21.67;;;12.13;;
37859;SDS011;23698;52.014;5.190;2023-04-06T14:46:23;25.77;;;13.15;;
37859;SDS011;23698;52.014;5.190;2023-04-06T14:49:11;22.20;;;12.43;;
37859;SDS011;23698;52.014;5.190;2023-04-06T14:52:02;21.15;;;12.70;;
37859;SDS011;23698;52.014;5.190;2023-04-06T14:54:51;24.30;;;12.05;;
37859;SDS011;23698;52.014;5.190;2023-04-06T14:57:37;21.27;;;12.02;;
37859;SDS011;23698;52.014;5.190;2023-04-06T15:00:25;20.80;;;11.32;;
37859;SDS011;23698;52.014;5.190;2023-04-06T15:03:13;19.75;;;11.32;;
37859;SDS011;23698;52.014;5.190;2023-04-06T15:06:01;20.23;;;12.13;;
37859;SDS011;23698;52.014;5.190;2023-04-06T15:08:47;18.80;;;10.43;;
37859;SDS011;23698;52.014;5.190;2023-04-06T15:11:36;23.38;;;11.52;;
37859;SDS011;23698;52.014;5.190;2023-04-06T15:14:28;23.58;;;11.73;;
37859;SDS011;23698;52.014;5.190;2023-04-06T15:17:15;21.70;;;11.80;;
37859;SDS011;23698;52.014;5.190;2023-04-06T15:20:48;19.02;;;11.63;;
37859;SDS011;23698;52.014;5.190;2023-04-06T15:23:37;18.80;;;11.75;;
37859;SDS011;23698;52.014;5.190;2023-04-06T15:26:24;20.88;;;11.73;;
37859;SDS011;23698;52.014;5.190;2023-04-06T15:29:12;21.73;;;12.73;;
37859;SDS011;23698;52.014;5.190;2023-04-06T15:31:59;21.38;;;12.70;;
37859;SDS011;23698;52.014;5.190;2023-04-06T15:34:47;21.48;;;12.45;;
37859;SDS011;23698;52.014;5.190;2023-04-06T15:37:33;24.25;;;13.07;;
37859;SDS011;23698;52.014;5.190;2023-04-06T15:40:21;20.13;;;12.75;;
37859;SDS011;23698;52.014;5.190;2023-04-06T15:43:10;22.20;;;13.65;;
37859;SDS011;23698;52.014;5.190;2023-04-06T15:46:00;21.65;;;13.63;;
37859;SDS011;23698;52.014;5.190;2023-04-06T15:48:49;22.77;;;14.20;;
37859;SDS011;23698;52.014;5.190;2023-04-06T15:51:36;22.13;;;13.85;;
37859;SDS011;23698;52.014;5.190;2023-04-06T15:54:24;20.23;;;12.65;;
37859;SDS011;23698;52.014;5.190;2023-04-06T15:57:10;24.65;;;13.70;;
37859;SDS011;23698;52.014;5.190;2023-04-06T15:59:57;25.17;;;13.70;;
37859;SDS011;23698;52.014;5.190;2023-04-06T16:02:48;21.65;;;13.15;;
37859;SDS011;23698;52.014;5.190;2023-04-06T16:05:35;23.45;;;14.25;;
37859;SDS011;23698;52.014;5.190;2023-04-06T16:08:38;23.70;;;14.50;;
37859;SDS011;23698;52.014;5.190;2023-04-06T16:11:25;26.13;;;14.27;;
37859;SDS011;23698;52.014;5.190;2023-04-06T16:14:11;22.92;;;14.15;;
37859;SDS011;23698;52.014;5.190;2023-04-06T16:16:59;21.70;;;13.90;;
37859;SDS011;23698;52.014;5.190;2023-04-06T16:19:47;23.77;;;14.43;;
37859;SDS011;23698;52.014;5.190;2023-04-06T16:22:35;24.52;;;14.30;;
37859;SDS011;23698;52.014;5.190;2023-04-06T16:25:22;24.05;;;13.50;;
37859;SDS011;23698;52.014;5.190;2023-04-06T16:28:10;23.25;;;14.93;;
37859;SDS011;23698;52.014;5.190;2023-04-06T16:30:57;44.45;;;26.73;;
37859;SDS011;23698;52.014;5.190;2023-04-06T16:33:43;67.60;;;40.95;;
37859;SDS011;23698;52.014;5.190;2023-04-06T16:36:32;24.65;;;16.02;;
37859;SDS011;23698;52.014;5.190;2023-04-06T16:39:20;27.60;;;17.43;;
37859;SDS011;23698;52.014;5.190;2023-04-06T16:42:07;22.95;;;15.75;;
37859;SDS011;23698;52.014;5.190;2023-04-06T16:44:56;22.23;;;15.38;;
37859;SDS011;23698;52.014;5.190;2023-04-06T16:47:42;26.33;;;15.05;;
37859;SDS011;23698;52.014;5.190;2023-04-06T16:50:29;23.02;;;14.85;;
37859;SDS011;23698;52.014;5.190;2023-04-06T16:53:22;25.67;;;16.83;;